Rocky, Oklahoma
Current Conditions -  °F | °C
As of 5:53 PM on Sunday 21 Dec 2014 (Local Time) from KHBR Reporting Station
Clear Clear  
Wind Chill: 41°   Ceiling: Unl
Heat Index: 47°   Visibility: 9mi
Dew Point: 44°   Wind: 13mph
Humidity: 90%   Direction: 140°SE
Pressure: 29.68"   Gusts: NA
Location:  35.16°N, 99.06°W
Report Text: KHBR 212353Z AUTO 14011KT 9SM CLR 08/07 A2968 RMK AO2 SLP050 T00830067 10111 20083 56016
Loading
Personal Weather Stations






























Interactive Weather Map New forecast layout! Learn more

10-Day Weather Forecast

Advertisements
Track Severe Weather on mobile